Time;durP1;ratioP1;P1;durP2;ratioP2;P2;SDS_P1;SDS_P2;PMS_P1;PMS_P2;Temp;Humidity;BMP_temperature;BMP_pressure;BME280_temperature;BME280_humidity;BME280_pressure;Samples;Min_cycle;Max_cycle;Signal;HPM_P1;HPM_P2
2023/04/20 00:00:00;;;;;;;4.90;2.60;;;;;;;8.04;56.56;99254.00;7424531;39;21200;31
2023/04/20 00:05:18;;;;;;;4.27;2.60;;;;;;;8.00;57.09;99241.84;7377981;39;20337;31
2023/04/20 00:10:51;;;;;;;3.40;2.30;;;;;;;7.91;57.18;99232.03;7337571;39;20330;31
2023/04/20 00:16:20;;;;;;;4.40;2.35;;;;;;;7.83;57.55;99231.06;7156979;39;20228;31
2023/04/20 00:21:52;;;;;;;3.97;2.37;;;;;;;7.73;58.39;99220.38;7348011;39;20237;31
2023/04/20 00:27:12;;;;;;;3.65;2.50;;;;;;;7.59;57.90;99215.53;7356537;39;20240;31
2023/04/20 00:32:58;;;;;;;2.80;2.50;;;;;;;7.52;57.24;99201.84;7378266;39;20258;31
2023/04/20 00:38:12;;;;;;;2.83;2.43;;;;;;;7.53;58.07;99192.81;7404948;39;20254;31
2023/04/20 00:43:45;;;;;;;3.37;2.30;;;;;;;7.53;57.87;99183.91;7429397;39;22116;31
2023/04/20 00:49:19;;;;;;;6.45;2.70;;;;;;;7.43;57.74;99172.38;7419412;39;20265;31
2023/04/20 00:54:54;;;;;;;3.80;2.47;;;;;;;7.34;58.14;99168.75;7400206;39;20344;31
2023/04/20 01:00:29;;;;;;;5.03;2.40;;;;;;;7.35;57.71;99157.03;7355014;39;20236;31
2023/04/20 01:06:02;;;;;;;2.60;2.25;;;;;;;7.31;58.59;99149.44;7344957;39;21788;31
2023/04/20 01:11:19;;;;;;;3.87;2.93;;;;;;;7.27;58.50;99142.69;7335645;39;20275;31
2023/04/20 01:21:55;;;;;;;4.40;2.45;;;;;;;7.18;58.37;99131.84;7330121;39;20282;31
2023/04/20 01:32:32;;;;;;;3.55;2.80;;;;;;;7.12;58.67;99127.06;7373790;39;20271;31
2023/04/20 01:38:04;;;;;;;3.90;2.60;;;;;;;7.05;59.07;99125.97;7356916;39;20364;31
2023/04/20 01:43:39;;;;;;;3.37;2.70;;;;;;;7.00;58.63;99112.16;7362955;39;20251;31
2023/04/20 01:49:10;;;;;;;3.77;2.50;;;;;;;6.99;59.13;99098.91;7375384;39;20239;31
2023/04/20 01:54:30;;;;;;;4.10;2.60;;;;;;;6.98;59.07;99100.72;7377440;39;20263;31
2023/04/20 01:59:47;;;;;;;2.60;2.27;;;;;;;6.90;60.05;99100.63;7363029;39;20301;31
2023/04/20 02:05:21;;;;;;;3.35;2.60;;;;;;;6.76;59.07;99096.56;7349284;39;20318;31
2023/04/20 02:10:39;;;;;;;2.83;2.53;;;;;;;6.76;58.90;99090.38;7381547;39;20372;31
2023/04/20 02:15:59;;;;;;;3.43;2.70;;;;;;;6.73;59.13;99094.19;7375578;39;20231;31
2023/04/20 02:21:35;;;;;;;3.47;2.60;;;;;;;6.68;59.71;99084.91;7428502;39;21740;31
2023/04/20 02:26:55;;;;;;;5.33;2.77;;;;;;;6.74;58.54;99079.81;7420598;39;20242;31
2023/04/20 02:32:13;;;;;;;3.40;2.40;;;;;;;6.82;58.61;99062.16;7404930;39;20306;31
2023/04/20 02:37:50;;;;;;;4.00;2.60;;;;;;;6.79;59.21;99064.16;7376561;39;20254;31
2023/04/20 02:43:24;;;;;;;7.17;2.93;;;;;;;6.83;59.48;99062.03;7343060;39;20273;31
2023/04/20 02:48:44;;;;;;;4.57;2.70;;;;;;;6.99;58.91;99061.41;7337216;39;20310;31
2023/04/20 02:54:17;;;;;;;7.35;3.00;;;;;;;7.04;59.02;99064.47;7327914;39;20342;31
2023/04/20 02:59:47;;;;;;;3.73;2.80;;;;;;;7.01;58.54;99043.34;7364182;39;20225;31
2023/04/20 03:05:06;;;;;;;3.63;2.87;;;;;;;7.09;58.75;99038.94;7376333;39;20392;31
2023/04/20 03:10:39;;;;;;;4.23;2.70;;;;;;;7.14;59.05;99033.97;7410696;39;20292;31
2023/04/20 03:16:14;;;;;;;4.25;2.70;;;;;;;7.13;58.51;99040.31;7419357;39;20349;31
2023/04/20 03:21:47;;;;;;;4.20;2.60;;;;;;;7.14;58.83;99033.97;7374867;39;20347;31
2023/04/20 03:27:18;;;;;;;5.40;2.80;;;;;;;7.13;58.63;99016.19;7417001;39;20290;31
2023/04/20 03:32:50;;;;;;;4.13;2.80;;;;;;;7.24;58.93;99012.44;7380141;39;20262;31
2023/04/20 03:38:07;;;;;;;5.47;2.90;;;;;;;7.25;59.63;99020.34;7343060;39;20236;31
2023/04/20 03:43:40;;;;;;;6.00;3.10;;;;;;;7.26;59.52;99015.84;7380575;39;20263;31
2023/04/20 03:49:13;;;;;;;4.90;3.10;;;;;;;7.29;59.47;99020.03;7378526;39;20358;31
2023/04/20 03:59:50;;;;;;;4.40;3.60;;;;;;;7.31;59.29;99008.19;7377310;39;20294;31
2023/04/20 04:10:15;;;;;;;5.60;3.30;;;;;;;7.31;58.95;99004.66;7419066;39;20258;31
2023/04/20 04:20:50;;;;;;;7.27;3.10;;;;;;;7.29;58.90;98998.59;7399578;39;20251;31
2023/04/20 04:26:25;;;;;;;8.63;2.93;;;;;;;7.36;59.27;98997.03;7359537;39;20244;31
2023/04/20 04:31:43;;;;;;;3.55;2.80;;;;;;;7.30;59.20;98992.25;7338012;39;20312;31
2023/04/20 04:37:13;;;;;;;3.77;3.00;;;;;;;7.28;59.49;98984.38;7317775;39;20412;31
2023/04/20 04:42:29;;;;;;;7.93;3.33;;;;;;;7.33;59.47;98992.78;7365502;39;20255;31
2023/04/20 04:47:51;;;;;;;5.47;2.97;;;;;;;7.31;59.48;98983.22;7415948;39;20250;31
2023/04/20 04:53:22;;;;;;;6.87;3.40;;;;;;;7.28;59.03;98973.66;7428763;39;20250;31
2023/04/20 04:58:40;;;;;;;4.20;3.17;;;;;;;7.20;59.90;98971.72;7403736;39;20349;31
2023/04/20 05:03:59;;;;;;;5.60;3.30;;;;;;;7.25;59.43;98966.75;7452068;39;20250;31
2023/04/20 05:09:33;;;;;;;5.27;3.40;;;;;;;7.32;59.43;98982.25;7382438;39;20348;31
2023/04/20 05:15:07;;;;;;;4.20;3.30;;;;;;;7.31;59.38;98985.91;7449608;39;21123;31
2023/04/20 05:20:40;;;;;;;4.00;3.10;;;;;;;7.30;60.17;98990.41;7397445;39;20239;31
2023/04/20 05:26:16;;;;;;;5.40;3.20;;;;;;;7.31;59.57;98983.22;7375124;39;20232;31
2023/04/20 05:31:37;;;;;;;5.60;3.50;;;;;;;7.35;59.42;98982.78;7356861;39;20221;31
2023/04/20 05:37:10;;;;;;;5.70;3.57;;;;;;;7.44;59.53;98991.75;7357247;39;20240;31
2023/04/20 05:42:42;;;;;;;5.27;3.57;;;;;;;7.30;59.91;98987.75;7337391;39;20255;31
2023/04/20 05:48:16;;;;;;;5.33;3.30;;;;;;;7.29;60.60;98987.87;7343864;39;20251;31
2023/04/20 05:53:34;;;;;;;4.95;3.45;;;;;;;7.42;59.64;98993.72;7379978;39;20258;31
2023/04/20 05:59:06;;;;;;;5.70;3.50;;;;;;;7.51;60.61;98995.50;7375597;39;20324;31
2023/04/20 06:04:27;;;;;;;6.20;3.45;;;;;;;7.59;59.50;98993.72;7426908;39;20389;31
2023/04/20 06:09:44;;;;;;;5.63;3.53;;;;;;;7.69;60.04;98993.66;7376327;39;20325;31
2023/04/20 06:15:15;;;;;;;3.95;2.90;;;;;;;7.76;59.48;98985.84;7359038;39;20254;31
2023/04/20 06:20:33;;;;;;;5.00;3.37;;;;;;;7.89;59.35;98997.03;7357467;39;20305;31
2023/04/20 06:25:49;;;;;;;7.20;3.83;;;;;;;7.92;58.71;99000.25;7363359;39;20315;31
2023/04/20 06:31:19;;;;;;;4.75;3.40;;;;;;;8.02;59.59;98992.12;7408029;39;21135;31
2023/04/20 06:36:54;;;;;;;5.83;3.40;;;;;;;8.06;58.87;98994.34;7398495;39;20318;31
2023/04/20 06:42:12;;;;;;;5.73;3.60;;;;;;;8.08;58.26;98992.31;7410195;39;20243;31
2023/04/20 06:47:42;;;;;;;4.93;3.70;;;;;;;8.20;59.83;98995.63;7396513;39;20255;31
2023/04/20 06:53:15;;;;;;;4.63;3.80;;;;;;;8.29;58.93;98997.41;7352674;39;20342;31
2023/04/20 06:58:35;;;;;;;5.07;3.83;;;;;;;8.40;58.89;98996.28;7174901;39;21390;31
2023/04/20 07:09:15;;;;;;;6.20;3.67;;;;;;;8.35;59.24;98988.69;7390258;39;21183;31
2023/04/20 07:14:35;;;;;;;6.40;3.93;;;;;;;8.42;59.30;98991.59;7400787;39;20269;31
2023/04/20 07:19:55;;;;;;;5.97;4.27;;;;;;;8.49;59.24;98977.38;7371042;39;20243;31
2023/04/20 07:25:31;;;;;;;7.20;4.20;;;;;;;8.55;59.53;98983.97;7425937;39;20239;31
2023/04/20 07:31:06;;;;;;;6.20;3.90;;;;;;;8.77;59.41;98972.66;7356176;39;20405;31
2023/04/20 07:36:41;;;;;;;5.47;4.33;;;;;;;8.90;59.37;98967.69;7332929;39;20242;31
2023/04/20 07:42:14;;;;;;;4.93;3.83;;;;;;;8.98;59.32;98970.41;7338218;39;20346;31
2023/04/20 07:47:50;;;;;;;6.03;4.03;;;;;;;9.04;59.90;98969.72;7315476;39;20248;31
2023/04/20 07:53:04;;;;;;;7.07;4.27;;;;;;;9.26;59.65;98968.28;7380991;39;20251;31
2023/04/20 07:58:39;;;;;;;4.93;3.93;;;;;;;9.37;59.09;98964.47;7355410;39;21624;31
2023/04/20 08:03:54;;;;;;;6.80;4.30;;;;;;;9.57;58.77;98971.22;7384132;39;20243;31
2023/04/20 08:09:10;;;;;;;6.00;3.90;;;;;;;9.64;57.74;98958.81;7359079;39;20262;31
2023/04/20 08:14:44;;;;;;;5.53;4.00;;;;;;;9.79;58.60;98949.03;7397615;39;21261;31
2023/04/20 08:20:20;;;;;;;9.80;4.80;;;;;;;9.92;58.38;98951.22;7399825;39;20304;31
2023/04/20 08:25:53;;;;;;;7.13;4.70;;;;;;;10.20;57.98;98947.22;7343981;39;20392;31
2023/04/20 08:31:24;;;;;;;6.85;4.60;;;;;;;10.39;57.62;98946.84;7337000;39;20252;31
2023/04/20 08:36:42;;;;;;;8.25;4.80;;;;;;;10.57;57.52;98943.09;7324000;39;20287;31
2023/04/20 08:47:17;;;;;;;7.20;4.75;;;;;;;10.94;57.19;98923.56;7368141;39;20270;31
2023/04/20 08:52:49;;;;;;;6.15;4.85;;;;;;;11.14;56.34;98928.38;7340267;39;20260;31
2023/04/20 08:58:06;;;;;;;8.57;4.70;;;;;;;11.31;55.95;98926.41;7354973;39;20582;31
2023/04/20 09:03:47;;;;;;;7.73;5.00;;;;;;;11.42;55.71;98917.91;7337087;39;20310;31
2023/04/20 09:09:24;;;;;;;6.50;4.90;;;;;;;11.54;55.33;98916.47;7345274;39;20248;31
2023/04/20 09:14:56;;;;;;;7.43;4.83;;;;;;;11.83;55.34;98909.53;7382694;39;20370;31
2023/04/20 09:25:34;;;;;;;6.10;4.93;;;;;;;12.15;54.42;98898.44;7374831;39;20263;31
2023/04/20 09:36:10;;;;;;;5.40;4.80;;;;;;;12.50;52.97;98902.28;7413101;39;21034;31
2023/04/20 09:46:50;;;;;;;9.60;5.05;;;;;;;12.14;54.16;98902.16;7375481;39;21114;31
2023/04/20 09:52:25;;;;;;;7.00;5.07;;;;;;;12.04;54.17;98888.06;7354173;39;20350;31
2023/04/20 09:57:57;;;;;;;7.60;5.20;;;;;;;12.13;54.00;98884.25;7312696;39;20279;31
2023/04/20 10:03:29;;;;;;;6.83;4.90;;;;;;;11.99;54.09;98876.97;7354482;39;20273;31
2023/04/20 10:09:01;;;;;;;7.57;5.50;;;;;;;12.08;54.08;98875.88;7352852;39;20278;31
2023/04/20 10:14:36;;;;;;;7.10;5.60;;;;;;;12.73;53.07;98862.44;7385325;39;20259;31
2023/04/20 10:20:04;;;;;;;8.47;5.33;;;;;;;12.88;52.23;98852.47;7373326;39;20266;31
2023/04/20 10:25:34;;;;;;;6.93;4.73;;;;;;;12.86;50.98;98848.25;7335455;39;21281;31
2023/04/20 10:36:11;;;;;;;7.33;4.90;;;;;;;12.54;51.83;98841.41;7302236;39;21196;31
2023/04/20 10:41:28;;;;;;;7.17;4.80;;;;;;;12.35;52.83;98845.53;7329252;39;20344;31
2023/04/20 10:47:02;;;;;;;7.70;4.80;;;;;;;12.39;52.47;98838.72;7358001;39;20243;31
2023/04/20 10:52:48;;;;;;;7.87;5.07;;;;;;;12.43;52.92;98823.78;7336967;39;20243;31
2023/04/20 10:58:20;;;;;;;6.00;4.87;;;;;;;12.28;54.14;98820.28;7387884;39;20247;31
2023/04/20 11:03:37;;;;;;;6.35;4.80;;;;;;;12.06;54.44;98819.34;7354917;39;20298;31
2023/04/20 11:09:13;;;;;;;6.00;5.40;;;;;;;12.00;54.11;98813.84;7337732;39;20259;31
2023/04/20 11:15:08;;;;;;;7.80;5.40;;;;;;;12.12;54.24;98807.78;7345214;39;20460;31
2023/04/20 11:20:38;;;;;;;6.60;5.70;;;;;;;12.11;54.33;98808.78;7355949;39;20306;31
2023/04/20 11:26:09;;;;;;;6.67;5.67;;;;;;;11.86;55.36;98806.53;7355175;39;20271;31
2023/04/20 11:31:27;;;;;;;6.97;5.10;;;;;;;11.87;56.76;98805.53;7344714;39;20272;31
2023/04/20 11:36:59;;;;;;;6.00;5.25;;;;;;;11.91;56.24;98799.56;7317094;39;20284;31
2023/04/20 11:47:40;;;;;;;7.37;5.67;;;;;;;11.55;57.71;98798.53;7412831;39;20262;31
2023/04/20 11:58:02;;;;;;;9.68;5.75;;;;;;;11.36;59.31;98809.84;7396419;39;21206;31
2023/04/20 12:08:43;;;;;;;7.80;6.47;;;;;;;11.42;61.25;98804.56;7419140;39;21197;31
2023/04/20 12:19:15;;;;;;;9.30;6.20;;;;;;;11.07;63.04;98845.62;7357097;39;21046;31
2023/04/20 12:29:50;;;;;;;7.63;5.27;;;;;;;10.23;68.44;98835.59;7358855;39;21331;31
2023/04/20 12:35:09;;;;;;;7.53;5.53;;;;;;;10.22;69.53;98832.03;7419836;39;20258;31
2023/04/20 12:40:29;;;;;;;6.85;5.32;;;;;;;10.33;70.46;98825.47;7344110;39;20248;31
2023/04/20 12:46:04;;;;;;;7.80;5.40;;;;;;;10.30;69.82;98828.50;7377231;39;20263;31
2023/04/20 12:51:36;;;;;;;6.90;5.00;;;;;;;10.19;69.69;98824.31;7357886;39;20244;31
2023/04/20 12:56:54;;;;;;;6.20;4.40;;;;;;;10.20;70.07;98823.31;7350975;39;20334;31
2023/04/20 13:02:26;;;;;;;4.93;3.93;;;;;;;10.24;72.17;98816.56;7358301;39;20254;31
2023/04/20 13:07:44;;;;;;;5.30;3.93;;;;;;;10.53;70.65;98813.22;7363721;39;20235;31
2023/04/20 13:13:01;;;;;;;4.90;4.13;;;;;;;10.70;69.59;98803.22;7394860;39;21158;31
2023/04/20 13:18:36;;;;;;;4.35;3.95;;;;;;;10.82;69.02;98810.75;7418575;39;20308;31
2023/04/20 13:23:51;;;;;;;6.83;5.20;;;;;;;10.85;67.64;98804.97;7354865;39;20229;31
2023/04/20 13:29:27;;;;;;;5.30;4.80;;;;;;;10.94;69.98;98794.97;7359187;39;20262;31
2023/04/20 13:35:00;;;;;;;7.10;5.85;;;;;;;11.10;69.35;98794.03;7357486;39;20240;31
2023/04/20 13:40:20;;;;;;;7.33;5.83;;;;;;;11.01;67.85;98789.72;7313479;39;20247;31
2023/04/20 13:45:40;;;;;;;6.60;5.90;;;;;;;10.96;68.01;98797.50;7327484;39;20263;31
2023/04/20 13:51:27;;;;;;;5.60;5.10;;;;;;;10.82;66.24;98791.88;7351771;39;20357;31
2023/04/20 14:01:49;;;;;;;5.85;5.30;;;;;;;11.10;66.66;98796.75;7379091;39;21179;31
2023/04/20 14:07:24;;;;;;;7.00;5.60;;;;;;;11.01;66.13;98803.22;7179657;39;20439;31
2023/04/20 14:12:41;;;;;;;6.63;5.77;;;;;;;10.82;65.79;98816.12;7423274;39;21184;31
2023/04/20 14:23:17;;;;;;;4.70;4.20;;;;;;;10.17;65.67;98809.38;7454156;39;21298;31
2023/04/20 14:33:53;;;;;;;4.95;4.30;;;;;;;10.05;67.36;98819.63;7397764;39;21275;31
2023/04/20 14:44:30;;;;;;;7.03;6.30;;;;;;;10.22;67.86;98820.47;7367637;39;21204;31
2023/04/20 14:49:47;;;;;;;5.97;5.37;;;;;;;10.21;67.37;98829.56;7357623;39;20252;31
2023/04/20 14:55:08;;;;;;;7.15;5.45;;;;;;;10.15;68.55;98824.81;7393836;39;20238;31
2023/04/20 15:00:42;;;;;;;6.68;4.90;;;;;;;9.99;69.90;98817.63;7381553;39;21272;31
2023/04/20 15:06:12;;;;;;;5.10;4.60;;;;;;;9.99;69.02;98819.47;7420773;39;20242;31
2023/04/20 15:11:32;;;;;;;6.40;5.40;;;;;;;9.93;69.69;98816.47;7397444;39;20235;31
2023/04/20 15:17:08;;;;;;;5.53;4.70;;;;;;;9.96;70.00;98805.34;7422712;39;20342;31
2023/04/20 15:22:28;;;;;;;5.93;4.87;;;;;;;9.93;70.38;98794.91;7406538;39;20257;31
2023/04/20 15:27:45;;;;;;;6.20;4.67;;;;;;;9.96;69.75;98793.72;7445710;39;21280;31
2023/04/20 15:33:18;;;;;;;5.00;4.50;;;;;;;9.87;71.11;98778.62;7385847;39;20318;31
2023/04/20 15:38:35;;;;;;;6.80;5.30;;;;;;;9.86;70.63;98785.03;7314458;39;20239;31
2023/04/20 15:43:52;;;;;;;7.60;4.93;;;;;;;9.82;70.28;98775.63;7359362;39;20323;31
2023/04/20 15:49:28;;;;;;;6.57;5.00;;;;;;;9.80;71.87;98773.09;7378289;39;21104;31
2023/04/20 15:55:03;;;;;;;4.77;4.23;;;;;;;9.83;70.67;98788.87;7377117;39;20331;31
2023/04/20 16:00:38;;;;;;;5.13;4.23;;;;;;;9.90;69.79;98778.28;7341534;39;20365;31
2023/04/20 16:06:11;;;;;;;5.27;4.33;;;;;;;10.02;70.32;98786.81;7382504;39;20271;31
2023/04/20 16:16:48;;;;;;;6.77;5.23;;;;;;;10.02;69.11;98784.97;7377624;39;20252;31
2023/04/20 16:22:22;;;;;;;5.33;4.70;;;;;;;9.96;68.82;98783.81;7344419;39;20236;31
2023/04/20 16:27:42;;;;;;;4.72;4.24;;;;;;;10.01;68.58;98787.81;7419200;39;20243;31
2023/04/20 16:33:17;;;;;;;5.00;4.60;;;;;;;9.97;68.59;98792.72;7334135;39;20247;31
2023/04/20 16:38:48;;;;;;;5.30;4.47;;;;;;;9.96;68.69;98791.88;7370637;39;20243;31
2023/04/20 16:44:17;;;;;;;5.97;4.17;;;;;;;10.02;68.42;98798.44;7353565;39;20275;31
2023/04/20 16:49:53;;;;;;;7.17;4.90;;;;;;;9.96;69.17;98799.94;7336273;39;20240;31
2023/04/20 16:55:26;;;;;;;6.97;4.97;;;;;;;10.00;68.40;98797.78;7353686;39;20271;31
2023/04/20 17:00:55;;;;;;;5.30;4.63;;;;;;;10.01;67.89;98790.50;7363823;39;20282;31
2023/04/20 17:11:34;;;;;;;5.15;4.20;;;;;;;10.18;67.87;98808.34;7357656;39;21216;31
2023/04/20 17:16:52;;;;;;;5.80;5.20;;;;;;;10.15;67.79;98801.44;7332598;39;20402;31
2023/04/20 17:22:24;;;;;;;6.40;5.70;;;;;;;10.15;68.31;98814.03;7340234;39;20289;31
2023/04/20 17:27:56;;;;;;;6.30;5.00;;;;;;;10.16;67.33;98822.00;7356954;39;20265;31
2023/04/20 17:33:28;;;;;;;5.40;4.80;;;;;;;10.14;67.17;98815.03;7377917;39;20235;31
2023/04/20 17:38:48;;;;;;;7.73;5.90;;;;;;;10.09;67.21;98803.97;7357879;39;21756;31
2023/04/20 17:49:29;;;;;;;6.22;5.62;;;;;;;9.91;68.16;98818.50;7362054;39;20243;31
2023/04/20 17:55:00;;;;;;;8.20;5.70;;;;;;;9.90;68.05;98824.03;7366588;39;20247;31
2023/04/20 18:00:19;;;;;;;6.57;5.60;;;;;;;9.87;68.08;98829.78;7380986;39;20414;31
2023/04/20 18:10:54;;;;;;;6.50;5.90;;;;;;;9.80;68.49;98821.53;7376732;39;21167;31
2023/04/20 18:21:31;;;;;;;6.73;5.70;;;;;;;9.77;69.08;98821.88;7402174;39;21081;31
2023/04/20 18:27:03;;;;;;;10.57;5.93;;;;;;;9.75;69.03;98831.12;7395215;39;20260;31
2023/04/20 18:37:27;;;;;;;6.43;5.83;;;;;;;9.71;69.59;98822.56;7395250;39;20655;31
2023/04/20 18:43:14;;;;;;;9.45;6.90;;;;;;;9.68;69.65;98832.81;7374329;39;20271;31
2023/04/20 18:53:51;;;;;;;8.07;6.60;;;;;;;9.64;70.06;98836.88;7448467;39;20359;31
2023/04/20 18:59:24;;;;;;;7.50;6.70;;;;;;;9.66;69.31;98851.81;7356890;39;20314;31
2023/04/20 19:04:56;;;;;;;7.15;6.20;;;;;;;9.56;69.91;98850.34;7379279;39;20267;31
2023/04/20 19:10:14;;;;;;;7.45;6.60;;;;;;;9.57;69.97;98843.91;7378119;39;20247;31
2023/04/20 19:15:47;;;;;;;7.83;6.73;;;;;;;9.59;70.15;98850.81;7376239;39;20246;31
2023/04/20 19:21:18;;;;;;;10.07;7.10;;;;;;;9.50;70.67;98850.00;7315358;39;20237;31
2023/04/20 19:26:50;;;;;;;8.90;7.00;;;;;;;9.49;70.54;98860.91;7321713;39;20366;31
2023/04/20 19:32:26;;;;;;;8.30;6.97;;;;;;;9.40;70.35;98852.00;7355317;39;20243;31
2023/04/20 19:37:44;;;;;;;9.40;7.60;;;;;;;9.35;71.04;98851.66;7416861;39;20291;31
2023/04/20 19:43:16;;;;;;;8.93;8.03;;;;;;;9.34;72.07;98851.84;7398669;39;21237;31
2023/04/20 19:48:48;;;;;;;8.73;7.83;;;;;;;9.37;71.64;98852.34;7336301;39;20252;31
2023/04/20 19:54:10;;;;;;;9.87;8.00;;;;;;;9.40;72.00;98851.16;7340138;39;20254;31
2023/04/20 19:59:31;;;;;;;8.73;7.50;;;;;;;9.40;71.67;98849.31;7377170;39;20235;31
2023/04/20 20:05:05;;;;;;;9.40;8.40;;;;;;;9.42;72.36;98849.16;7383228;39;20337;31
2023/04/20 20:10:22;;;;;;;9.70;8.70;;;;;;;9.37;72.27;98856.88;7400298;39;20285;31
2023/04/20 20:20:57;;;;;;;11.10;9.40;;;;;;;9.27;73.70;98857.03;7403211;39;20274;31
2023/04/20 20:31:18;;;;;;;9.70;8.70;;;;;;;9.29;73.10;98848.81;7446681;39;20266;31
2023/04/20 20:36:50;;;;;;;10.70;9.57;;;;;;;9.26;73.44;98859.91;7378434;39;20235;31
2023/04/20 20:42:07;;;;;;;10.43;8.77;;;;;;;9.26;74.04;98854.53;7355258;39;20383;31
2023/04/20 20:47:39;;;;;;;12.70;9.55;;;;;;;9.27;73.80;98864.25;7358813;39;20350;31
2023/04/20 20:53:12;;;;;;;11.80;9.80;;;;;;;9.27;73.64;98861.56;7354647;39;20279;31
2023/04/20 21:03:33;;;;;;;11.35;9.65;;;;;;;9.26;73.74;98839.22;7399681;39;20524;31
2023/04/20 21:09:10;;;;;;;12.40;10.50;;;;;;;9.21;74.21;98836.22;7401090;39;20253;31
2023/04/20 21:14:30;;;;;;;10.77;9.67;;;;;;;9.17;74.35;98844.78;7377288;39;20362;31
2023/04/20 21:19:50;;;;;;;10.93;9.70;;;;;;;9.11;74.81;98842.75;7196149;39;20419;31
2023/04/20 21:25:26;;;;;;;10.60;9.00;;;;;;;9.11;74.34;98835.50;7421075;39;21960;31
2023/04/20 21:36:02;;;;;;;12.47;10.60;;;;;;;9.09;74.22;98837.50;7443941;39;20275;31
2023/04/20 21:46:40;;;;;;;11.18;9.55;;;;;;;9.02;75.17;98841.87;7398486;39;21083;31
2023/04/20 21:57:19;;;;;;;11.82;10.38;;;;;;;8.92;74.70;98842.03;7397977;39;21209;31
2023/04/20 22:02:50;;;;;;;11.70;9.95;;;;;;;8.94;74.49;98837.34;7380149;39;20251;31
2023/04/20 22:08:10;;;;;;;13.83;10.70;;;;;;;8.94;73.70;98840.03;7398139;39;20255;31
2023/04/20 22:13:42;;;;;;;13.33;11.03;;;;;;;8.89;74.50;98831.62;7382531;39;20291;31
2023/04/20 22:19:16;;;;;;;11.77;10.43;;;;;;;8.81;74.92;98826.22;7315618;39;20252;31
2023/04/20 22:24:33;;;;;;;11.50;10.00;;;;;;;8.78;74.14;98829.22;7348536;39;20251;31
2023/04/20 22:29:52;;;;;;;14.90;11.93;;;;;;;8.71;74.14;98830.91;7336223;39;20251;31
2023/04/20 22:35:23;;;;;;;12.60;11.05;;;;;;;8.59;75.27;98821.47;7333167;39;20250;31
2023/04/20 22:46:02;;;;;;;12.85;11.38;;;;;;;8.53;75.01;98830.16;7315154;39;21064;31
2023/04/20 22:51:35;;;;;;;18.17;11.60;;;;;;;8.52;74.24;98828.47;7304275;39;20244;31
2023/04/20 22:57:10;;;;;;;13.20;11.00;;;;;;;8.48;74.68;98832.50;7338731;39;20248;31
2023/04/20 23:02:27;;;;;;;15.57;10.77;;;;;;;8.34;74.45;98830.41;7371376;39;20258;31
2023/04/20 23:08:01;;;;;;;11.97;10.40;;;;;;;8.19;74.80;98837.38;7336994;39;21226;31
2023/04/20 23:13:36;;;;;;;11.45;10.25;;;;;;;8.26;75.04;98843.78;7340017;39;20343;31
2023/04/20 23:18:54;;;;;;;12.77;11.40;;;;;;;8.12;74.86;98842.53;7340887;39;20254;31
2023/04/20 23:24:30;;;;;;;12.10;10.60;;;;;;;8.13;74.74;98852.28;7304017;39;20281;31
2023/04/20 23:29:47;;;;;;;14.00;11.35;;;;;;;8.23;75.07;98858.37;7326223;39;20267;31
2023/04/20 23:40:23;;;;;;;14.83;11.03;;;;;;;8.19;75.37;98846.28;7366357;39;21141;31
2023/04/20 23:45:38;;;;;;;12.47;10.67;;;;;;;8.15;75.28;98845.75;7361643;39;20324;31
2023/04/20 23:56:12;;;;;;;15.33;12.50;;;;;;;8.11;75.63;98827.44;7375545;39;21162;31
